sensor_id;sensor_type;location;lat;lon;timestamp;temperature;humidity
15257;DHT22;7731;50.720;6.912;2023-07-30T00:00:17;16.40;99.90
15257;DHT22;7731;50.720;6.912;2023-07-30T00:02:50;16.40;99.90
15257;DHT22;7731;50.720;6.912;2023-07-30T00:05:21;16.40;99.90
15257;DHT22;7731;50.720;6.912;2023-07-30T00:07:54;16.40;99.90
15257;DHT22;7731;50.720;6.912;2023-07-30T00:10:26;16.30;99.90
15257;DHT22;7731;50.720;6.912;2023-07-30T00:12:57;16.30;99.90
15257;DHT22;7731;50.720;6.912;2023-07-30T00:15:30;16.30;99.90
15257;DHT22;7731;50.720;6.912;2023-07-30T00:18:01;16.40;99.90
15257;DHT22;7731;50.720;6.912;2023-07-30T00:20:31;16.30;99.90
15257;DHT22;7731;50.720;6.912;2023-07-30T00:23:09;16.30;99.90
15257;DHT22;7731;50.720;6.912;2023-07-30T00:25:42;16.30;99.90
15257;DHT22;7731;50.720;6.912;2023-07-30T00:28:15;16.30;99.90
15257;DHT22;7731;50.720;6.912;2023-07-30T00:30:46;16.30;99.90
15257;DHT22;7731;50.720;6.912;2023-07-30T00:33:16;16.30;99.90
15257;DHT22;7731;50.720;6.912;2023-07-30T00:35:46;16.30;99.90
15257;DHT22;7731;50.720;6.912;2023-07-30T00:38:19;16.40;99.90
15257;DHT22;7731;50.720;6.912;2023-07-30T00:40:50;16.40;99.90
15257;DHT22;7731;50.720;6.912;2023-07-30T00:43:20;16.30;99.90
15257;DHT22;7731;50.720;6.912;2023-07-30T00:45:54;16.30;99.90
15257;DHT22;7731;50.720;6.912;2023-07-30T00:48:25;16.30;99.90
15257;DHT22;7731;50.720;6.912;2023-07-30T00:50:57;16.20;99.90
15257;DHT22;7731;50.720;6.912;2023-07-30T00:53:30;16.20;99.90
15257;DHT22;7731;50.720;6.912;2023-07-30T00:56:01;16.20;99.90
15257;DHT22;7731;50.720;6.912;2023-07-30T00:58:32;16.20;99.90
15257;DHT22;7731;50.720;6.912;2023-07-30T01:01:03;16.10;99.90
15257;DHT22;7731;50.720;6.912;2023-07-30T01:03:34;16.10;99.90
15257;DHT22;7731;50.720;6.912;2023-07-30T01:06:05;16.00;99.90
15257;DHT22;7731;50.720;6.912;2023-07-30T01:08:38;16.00;99.90
15257;DHT22;7731;50.720;6.912;2023-07-30T01:11:09;15.90;99.90
15257;DHT22;7731;50.720;6.912;2023-07-30T01:16:26;15.80;99.90
15257;DHT22;7731;50.720;6.912;2023-07-30T01:18:57;15.80;99.90
15257;DHT22;7731;50.720;6.912;2023-07-30T01:21:34;15.80;99.90
15257;DHT22;7731;50.720;6.912;2023-07-30T01:24:05;15.70;99.90
15257;DHT22;7731;50.720;6.912;2023-07-30T01:26:40;15.60;99.90
15257;DHT22;7731;50.720;6.912;2023-07-30T01:29:25;15.70;99.90
15257;DHT22;7731;50.720;6.912;2023-07-30T01:32:11;15.70;99.90
15257;DHT22;7731;50.720;6.912;2023-07-30T01:34:44;15.80;99.90
15257;DHT22;7731;50.720;6.912;2023-07-30T01:37:23;15.80;99.90
15257;DHT22;7731;50.720;6.912;2023-07-30T01:40:06;15.90;99.90
15257;DHT22;7731;50.720;6.912;2023-07-30T01:42:37;16.00;99.90
15257;DHT22;7731;50.720;6.912;2023-07-30T01:45:08;16.30;99.90
15257;DHT22;7731;50.720;6.912;2023-07-30T01:47:38;16.50;99.90
15257;DHT22;7731;50.720;6.912;2023-07-30T01:50:09;16.60;99.90
15257;DHT22;7731;50.720;6.912;2023-07-30T01:52:47;16.70;99.90
15257;DHT22;7731;50.720;6.912;2023-07-30T01:55:18;16.70;99.90
15257;DHT22;7731;50.720;6.912;2023-07-30T01:57:48;16.60;99.90
15257;DHT22;7731;50.720;6.912;2023-07-30T02:00:18;16.70;99.90
15257;DHT22;7731;50.720;6.912;2023-07-30T02:02:51;16.70;99.90
15257;DHT22;7731;50.720;6.912;2023-07-30T02:05:22;16.70;99.90
15257;DHT22;7731;50.720;6.912;2023-07-30T02:07:57;16.70;99.90
15257;DHT22;7731;50.720;6.912;2023-07-30T02:10:28;16.70;99.90
15257;DHT22;7731;50.720;6.912;2023-07-30T02:12:58;16.70;99.90
15257;DHT22;7731;50.720;6.912;2023-07-30T02:15:31;16.70;99.90
15257;DHT22;7731;50.720;6.912;2023-07-30T02:18:03;16.70;99.90
15257;DHT22;7731;50.720;6.912;2023-07-30T02:20:37;16.70;99.90
15257;DHT22;7731;50.720;6.912;2023-07-30T02:23:10;16.70;99.90
15257;DHT22;7731;50.720;6.912;2023-07-30T02:25:40;16.70;99.90
15257;DHT22;7731;50.720;6.912;2023-07-30T02:28:10;16.70;99.90
15257;DHT22;7731;50.720;6.912;2023-07-30T02:30:44;16.70;99.90
15257;DHT22;7731;50.720;6.912;2023-07-30T02:33:16;16.70;99.90
15257;DHT22;7731;50.720;6.912;2023-07-30T02:35:49;16.70;99.90
15257;DHT22;7731;50.720;6.912;2023-07-30T02:38:22;16.60;99.90
15257;DHT22;7731;50.720;6.912;2023-07-30T02:40:58;16.60;99.90
15257;DHT22;7731;50.720;6.912;2023-07-30T02:43:29;16.60;99.90
15257;DHT22;7731;50.720;6.912;2023-07-30T02:45:59;16.60;99.90
15257;DHT22;7731;50.720;6.912;2023-07-30T02:48:46;16.60;99.90
15257;DHT22;7731;50.720;6.912;2023-07-30T02:51:16;16.60;99.90
15257;DHT22;7731;50.720;6.912;2023-07-30T02:53:51;16.60;99.90
15257;DHT22;7731;50.720;6.912;2023-07-30T02:56:23;16.60;99.90
15257;DHT22;7731;50.720;6.912;2023-07-30T02:58:53;16.50;99.90
15257;DHT22;7731;50.720;6.912;2023-07-30T03:01:26;16.50;99.90
15257;DHT22;7731;50.720;6.912;2023-07-30T03:03:57;16.50;99.90
15257;DHT22;7731;50.720;6.912;2023-07-30T03:06:27;16.40;99.90
15257;DHT22;7731;50.720;6.912;2023-07-30T03:09:01;16.40;99.90
15257;DHT22;7731;50.720;6.912;2023-07-30T03:11:34;16.50;99.90
15257;DHT22;7731;50.720;6.912;2023-07-30T03:14:07;16.50;99.90
15257;DHT22;7731;50.720;6.912;2023-07-30T03:16:40;16.50;99.90
15257;DHT22;7731;50.720;6.912;2023-07-30T03:19:10;16.50;99.90
15257;DHT22;7731;50.720;6.912;2023-07-30T03:21:41;16.50;99.90
15257;DHT22;7731;50.720;6.912;2023-07-30T03:24:14;16.50;99.90
15257;DHT22;7731;50.720;6.912;2023-07-30T03:26:46;16.50;99.90
15257;DHT22;7731;50.720;6.912;2023-07-30T03:29:17;16.50;99.90
15257;DHT22;7731;50.720;6.912;2023-07-30T03:31:50;16.60;99.90
15257;DHT22;7731;50.720;6.912;2023-07-30T03:34:23;16.70;99.90
15257;DHT22;7731;50.720;6.912;2023-07-30T03:36:56;16.70;99.90
15257;DHT22;7731;50.720;6.912;2023-07-30T03:39:30;16.60;99.90
15257;DHT22;7731;50.720;6.912;2023-07-30T03:42:03;16.60;99.90
15257;DHT22;7731;50.720;6.912;2023-07-30T03:44:34;16.60;99.90
15257;DHT22;7731;50.720;6.912;2023-07-30T03:47:04;16.60;99.90
15257;DHT22;7731;50.720;6.912;2023-07-30T03:49:35;16.60;99.90
15257;DHT22;7731;50.720;6.912;2023-07-30T03:52:06;16.60;99.90
15257;DHT22;7731;50.720;6.912;2023-07-30T03:54:48;16.60;99.90
15257;DHT22;7731;50.720;6.912;2023-07-30T03:57:19;16.60;99.90
15257;DHT22;7731;50.720;6.912;2023-07-30T03:59:49;16.60;99.90
15257;DHT22;7731;50.720;6.912;2023-07-30T04:02:21;16.60;99.90
15257;DHT22;7731;50.720;6.912;2023-07-30T04:04:52;16.60;99.90
15257;DHT22;7731;50.720;6.912;2023-07-30T04:07:22;16.50;99.90
15257;DHT22;7731;50.720;6.912;2023-07-30T04:09:55;16.40;99.90
15257;DHT22;7731;50.720;6.912;2023-07-30T04:12:25;16.30;99.90
15257;DHT22;7731;50.720;6.912;2023-07-30T04:14:58;16.50;99.90
15257;DHT22;7731;50.720;6.912;2023-07-30T04:17:28;16.60;99.90
15257;DHT22;7731;50.720;6.912;2023-07-30T04:20:02;16.60;99.90
15257;DHT22;7731;50.720;6.912;2023-07-30T04:22:33;16.70;99.90
15257;DHT22;7731;50.720;6.912;2023-07-30T04:25:09;16.80;99.90
15257;DHT22;7731;50.720;6.912;2023-07-30T04:27:42;16.80;99.90
15257;DHT22;7731;50.720;6.912;2023-07-30T04:30:12;16.80;99.90
15257;DHT22;7731;50.720;6.912;2023-07-30T04:32:43;16.80;99.90
15257;DHT22;7731;50.720;6.912;2023-07-30T04:35:13;16.70;99.90
15257;DHT22;7731;50.720;6.912;2023-07-30T04:37:44;16.80;99.90
15257;DHT22;7731;50.720;6.912;2023-07-30T04:40:19;16.80;99.90
15257;DHT22;7731;50.720;6.912;2023-07-30T04:42:49;16.90;99.90
15257;DHT22;7731;50.720;6.912;2023-07-30T04:45:19;17.00;99.90
15257;DHT22;7731;50.720;6.912;2023-07-30T04:54:00;16.80;99.90
15257;DHT22;7731;50.720;6.912;2023-07-30T04:56:30;16.80;99.90
15257;DHT22;7731;50.720;6.912;2023-07-30T04:59:01;16.80;99.90
15257;DHT22;7731;50.720;6.912;2023-07-30T05:01:32;16.80;99.90
15257;DHT22;7731;50.720;6.912;2023-07-30T05:04:03;16.80;99.90
15257;DHT22;7731;50.720;6.912;2023-07-30T05:06:33;16.90;99.90
15257;DHT22;7731;50.720;6.912;2023-07-30T05:09:06;16.80;99.90
15257;DHT22;7731;50.720;6.912;2023-07-30T05:11:39;17.00;99.90
15257;DHT22;7731;50.720;6.912;2023-07-30T05:14:09;17.10;99.90
15257;DHT22;7731;50.720;6.912;2023-07-30T05:16:39;17.10;99.90
15257;DHT22;7731;50.720;6.912;2023-07-30T05:19:10;17.10;99.90
15257;DHT22;7731;50.720;6.912;2023-07-30T05:21:40;17.20;99.90
15257;DHT22;7731;50.720;6.912;2023-07-30T05:24:15;17.10;99.90
15257;DHT22;7731;50.720;6.912;2023-07-30T05:26:45;17.10;99.90
15257;DHT22;7731;50.720;6.912;2023-07-30T05:29:16;17.10;99.90
15257;DHT22;7731;50.720;6.912;2023-07-30T05:31:49;17.20;99.90
15257;DHT22;7731;50.720;6.912;2023-07-30T05:34:19;17.20;99.90
15257;DHT22;7731;50.720;6.912;2023-07-30T05:36:49;17.20;99.90
15257;DHT22;7731;50.720;6.912;2023-07-30T05:39:22;17.20;99.90
15257;DHT22;7731;50.720;6.912;2023-07-30T05:41:53;17.10;99.90
15257;DHT22;7731;50.720;6.912;2023-07-30T05:44:23;17.00;99.90
15257;DHT22;7731;50.720;6.912;2023-07-30T05:46:56;17.10;99.90
15257;DHT22;7731;50.720;6.912;2023-07-30T05:49:27;17.10;99.90
15257;DHT22;7731;50.720;6.912;2023-07-30T05:51:57;17.10;99.90
15257;DHT22;7731;50.720;6.912;2023-07-30T05:54:30;17.20;99.90
15257;DHT22;7731;50.720;6.912;2023-07-30T05:57:03;17.30;99.90
15257;DHT22;7731;50.720;6.912;2023-07-30T05:59:34;17.30;99.90
15257;DHT22;7731;50.720;6.912;2023-07-30T06:02:05;17.20;99.90
15257;DHT22;7731;50.720;6.912;2023-07-30T06:04:38;17.20;99.90
15257;DHT22;7731;50.720;6.912;2023-07-30T06:07:12;17.20;99.90
15257;DHT22;7731;50.720;6.912;2023-07-30T06:09:44;17.10;99.90
15257;DHT22;7731;50.720;6.912;2023-07-30T06:12:18;17.10;99.90
15257;DHT22;7731;50.720;6.912;2023-07-30T06:15:02;17.00;99.90
15257;DHT22;7731;50.720;6.912;2023-07-30T06:17:35;17.00;99.90
15257;DHT22;7731;50.720;6.912;2023-07-30T06:20:07;17.10;99.90
15257;DHT22;7731;50.720;6.912;2023-07-30T06:22:44;17.10;99.90
15257;DHT22;7731;50.720;6.912;2023-07-30T06:25:26;17.20;99.90
15257;DHT22;7731;50.720;6.912;2023-07-30T06:27:56;17.10;99.90
15257;DHT22;7731;50.720;6.912;2023-07-30T06:30:27;17.10;99.90
15257;DHT22;7731;50.720;6.912;2023-07-30T06:32:57;17.10;99.90
15257;DHT22;7731;50.720;6.912;2023-07-30T06:35:28;17.10;99.90
15257;DHT22;7731;50.720;6.912;2023-07-30T06:37:58;17.20;99.90
15257;DHT22;7731;50.720;6.912;2023-07-30T06:40:33;17.20;99.90
15257;DHT22;7731;50.720;6.912;2023-07-30T06:43:03;17.20;99.90
15257;DHT22;7731;50.720;6.912;2023-07-30T06:45:34;17.30;99.90
15257;DHT22;7731;50.720;6.912;2023-07-30T06:48:04;17.30;99.90
15257;DHT22;7731;50.720;6.912;2023-07-30T06:50:35;17.40;99.90
15257;DHT22;7731;50.720;6.912;2023-07-30T06:53:05;17.30;99.90
15257;DHT22;7731;50.720;6.912;2023-07-30T06:55:38;17.20;99.90
15257;DHT22;7731;50.720;6.912;2023-07-30T06:58:08;17.30;99.90
15257;DHT22;7731;50.720;6.912;2023-07-30T07:00:41;17.20;99.90
15257;DHT22;7731;50.720;6.912;2023-07-30T07:03:11;17.30;99.90
15257;DHT22;7731;50.720;6.912;2023-07-30T07:05:45;17.30;99.90
15257;DHT22;7731;50.720;6.912;2023-07-30T07:08:28;17.40;99.90
15257;DHT22;7731;50.720;6.912;2023-07-30T07:11:01;17.40;99.90
15257;DHT22;7731;50.720;6.912;2023-07-30T07:13:34;17.50;99.90
15257;DHT22;7731;50.720;6.912;2023-07-30T07:16:04;17.70;99.90
15257;DHT22;7731;50.720;6.912;2023-07-30T07:18:35;17.70;99.90
15257;DHT22;7731;50.720;6.912;2023-07-30T07:21:05;17.70;99.90
15257;DHT22;7731;50.720;6.912;2023-07-30T07:23:41;17.70;99.90
15257;DHT22;7731;50.720;6.912;2023-07-30T07:26:14;17.90;99.90
15257;DHT22;7731;50.720;6.912;2023-07-30T07:28:47;18.10;99.90
15257;DHT22;7731;50.720;6.912;2023-07-30T07:31:17;18.00;99.90
15257;DHT22;7731;50.720;6.912;2023-07-30T07:34:02;17.90;99.90
15257;DHT22;7731;50.720;6.912;2023-07-30T07:36:32;17.90;99.90
15257;DHT22;7731;50.720;6.912;2023-07-30T07:39:05;17.90;99.90
15257;DHT22;7731;50.720;6.912;2023-07-30T07:41:38;18.00;99.90
15257;DHT22;7731;50.720;6.912;2023-07-30T07:44:09;18.10;99.90
15257;DHT22;7731;50.720;6.912;2023-07-30T07:46:39;18.20;99.90
15257;DHT22;7731;50.720;6.912;2023-07-30T07:49:13;18.50;99.90
15257;DHT22;7731;50.720;6.912;2023-07-30T07:51:46;18.80;99.90
15257;DHT22;7731;50.720;6.912;2023-07-30T07:54:21;18.90;99.90
15257;DHT22;7731;50.720;6.912;2023-07-30T07:56:56;19.20;99.90
15257;DHT22;7731;50.720;6.912;2023-07-30T07:59:27;19.50;99.90
15257;DHT22;7731;50.720;6.912;2023-07-30T08:01:58;19.70;99.90
15257;DHT22;7731;50.720;6.912;2023-07-30T08:04:45;19.80;99.90
15257;DHT22;7731;50.720;6.912;2023-07-30T08:07:18;19.90;99.90
15257;DHT22;7731;50.720;6.912;2023-07-30T08:09:49;20.20;99.90
15257;DHT22;7731;50.720;6.912;2023-07-30T08:12:22;20.50;99.90
15257;DHT22;7731;50.720;6.912;2023-07-30T08:14:52;20.70;99.90
15257;DHT22;7731;50.720;6.912;2023-07-30T08:17:23;20.60;99.90
15257;DHT22;7731;50.720;6.912;2023-07-30T08:19:53;20.30;99.90
15257;DHT22;7731;50.720;6.912;2023-07-30T08:22:24;20.10;99.90
15257;DHT22;7731;50.720;6.912;2023-07-30T08:24:54;20.00;99.90
15257;DHT22;7731;50.720;6.912;2023-07-30T08:27:27;20.10;99.90
15257;DHT22;7731;50.720;6.912;2023-07-30T08:30:00;20.60;99.90
15257;DHT22;7731;50.720;6.912;2023-07-30T08:32:30;21.10;96.10
15257;DHT22;7731;50.720;6.912;2023-07-30T08:35:10;21.30;91.70
15257;DHT22;7731;50.720;6.912;2023-07-30T08:37:41;21.50;88.50
15257;DHT22;7731;50.720;6.912;2023-07-30T08:40:12;21.70;65.00
15257;DHT22;7731;50.720;6.912;2023-07-30T08:42:47;21.20;86.60
15257;DHT22;7731;50.720;6.912;2023-07-30T08:45:17;20.60;99.90
15257;DHT22;7731;50.720;6.912;2023-07-30T08:47:48;20.70;99.90
15257;DHT22;7731;50.720;6.912;2023-07-30T08:50:19;20.60;99.90
15257;DHT22;7731;50.720;6.912;2023-07-30T08:52:49;21.00;99.90
15257;DHT22;7731;50.720;6.912;2023-07-30T08:55:20;21.80;55.10
15257;DHT22;7731;50.720;6.912;2023-07-30T08:57:55;23.50;25.50
15257;DHT22;7731;50.720;6.912;2023-07-30T09:00:36;25.40;1.00
15257;DHT22;7731;50.720;6.912;2023-07-30T09:03:08;26.30;1.00
15257;DHT22;7731;50.720;6.912;2023-07-30T09:05:40;26.40;99.90
15257;DHT22;7731;50.720;6.912;2023-07-30T09:08:12;26.20;99.90
15257;DHT22;7731;50.720;6.912;2023-07-30T09:10:43;26.10;99.90
15257;DHT22;7731;50.720;6.912;2023-07-30T09:13:25;26.60;99.90
15257;DHT22;7731;50.720;6.912;2023-07-30T09:15:56;27.50;1.00
15257;DHT22;7731;50.720;6.912;2023-07-30T09:18:27;26.90;95.00
15257;DHT22;7731;50.720;6.912;2023-07-30T09:20:57;26.60;1.00
15257;DHT22;7731;50.720;6.912;2023-07-30T09:23:30;26.60;99.90
15257;DHT22;7731;50.720;6.912;2023-07-30T09:26:00;25.70;99.90
15257;DHT22;7731;50.720;6.912;2023-07-30T09:28:33;25.00;1.00
15257;DHT22;7731;50.720;6.912;2023-07-30T09:31:08;24.80;1.00
15257;DHT22;7731;50.720;6.912;2023-07-30T09:33:51;24.70;1.00
15257;DHT22;7731;50.720;6.912;2023-07-30T09:36:22;25.00;1.00
15257;DHT22;7731;50.720;6.912;2023-07-30T09:38:54;24.50;1.00
15257;DHT22;7731;50.720;6.912;2023-07-30T09:41:25;24.00;1.00
15257;DHT22;7731;50.720;6.912;2023-07-30T09:44:01;24.00;1.00
15257;DHT22;7731;50.720;6.912;2023-07-30T09:46:42;24.10;1.00
15257;DHT22;7731;50.720;6.912;2023-07-30T09:49:13;24.90;1.00
15257;DHT22;7731;50.720;6.912;2023-07-30T09:51:45;26.50;99.90
15257;DHT22;7731;50.720;6.912;2023-07-30T09:54:16;26.80;99.90
15257;DHT22;7731;50.720;6.912;2023-07-30T09:56:46;27.90;1.00
15257;DHT22;7731;50.720;6.912;2023-07-30T09:59:21;28.50;1.00
15257;DHT22;7731;50.720;6.912;2023-07-30T10:01:57;28.40;1.00
15257;DHT22;7731;50.720;6.912;2023-07-30T10:04:28;27.20;1.00
15257;DHT22;7731;50.720;6.912;2023-07-30T10:07:04;26.90;99.90
15257;DHT22;7731;50.720;6.912;2023-07-30T10:09:42;26.20;99.90
15257;DHT22;7731;50.720;6.912;2023-07-30T10:12:21;26.90;1.00
15257;DHT22;7731;50.720;6.912;2023-07-30T10:14:56;28.00;99.90
15257;DHT22;7731;50.720;6.912;2023-07-30T10:17:27;28.60;1.00
15257;DHT22;7731;50.720;6.912;2023-07-30T10:20:19;28.50;99.90
15257;DHT22;7731;50.720;6.912;2023-07-30T10:22:53;28.10;99.90
15257;DHT22;7731;50.720;6.912;2023-07-30T10:25:28;27.40;99.90
15257;DHT22;7731;50.720;6.912;2023-07-30T10:27:59;25.90;99.90
15257;DHT22;7731;50.720;6.912;2023-07-30T10:30:36;24.80;1.00
15257;DHT22;7731;50.720;6.912;2023-07-30T10:33:09;24.60;99.90
15257;DHT22;7731;50.720;6.912;2023-07-30T10:35:43;24.70;1.00
15257;DHT22;7731;50.720;6.912;2023-07-30T10:38:22;24.60;99.90
15257;DHT22;7731;50.720;6.912;2023-07-30T10:41:07;24.10;1.00
15257;DHT22;7731;50.720;6.912;2023-07-30T10:43:41;23.90;99.90
15257;DHT22;7731;50.720;6.912;2023-07-30T10:46:16;24.20;1.00
15257;DHT22;7731;50.720;6.912;2023-07-30T10:48:50;25.60;99.90
15257;DHT22;7731;50.720;6.912;2023-07-30T10:51:23;27.00;1.00
15257;DHT22;7731;50.720;6.912;2023-07-30T10:53:56;27.40;1.00
15257;DHT22;7731;50.720;6.912;2023-07-30T10:56:26;29.20;1.00
15257;DHT22;7731;50.720;6.912;2023-07-30T10:58:59;29.20;99.90
15257;DHT22;7731;50.720;6.912;2023-07-30T11:01:36;29.70;1.00
15257;DHT22;7731;50.720;6.912;2023-07-30T11:04:10;29.30;1.00
15257;DHT22;7731;50.720;6.912;2023-07-30T11:06:46;28.00;1.00
15257;DHT22;7731;50.720;6.912;2023-07-30T11:09:20;27.20;26.50
15257;DHT22;7731;50.720;6.912;2023-07-30T11:11:53;27.30;99.90
15257;DHT22;7731;50.720;6.912;2023-07-30T11:14:25;27.50;99.90
15257;DHT22;7731;50.720;6.912;2023-07-30T11:17:00;28.60;99.90
15257;DHT22;7731;50.720;6.912;2023-07-30T11:19:34;28.40;99.90
15257;DHT22;7731;50.720;6.912;2023-07-30T11:22:04;28.60;80.40
15257;DHT22;7731;50.720;6.912;2023-07-30T11:24:36;28.30;78.20
15257;DHT22;7731;50.720;6.912;2023-07-30T11:27:07;27.10;80.90
15257;DHT22;7731;50.720;6.912;2023-07-30T11:29:46;26.30;99.90
15257;DHT22;7731;50.720;6.912;2023-07-30T11:32:27;26.00;99.90
15257;DHT22;7731;50.720;6.912;2023-07-30T11:35:01;25.90;99.90
15257;DHT22;7731;50.720;6.912;2023-07-30T11:37:32;26.10;1.00
15257;DHT22;7731;50.720;6.912;2023-07-30T11:40:07;25.80;1.00
15257;DHT22;7731;50.720;6.912;2023-07-30T11:42:41;25.80;1.00
15257;DHT22;7731;50.720;6.912;2023-07-30T11:45:19;25.30;1.00
15257;DHT22;7731;50.720;6.912;2023-07-30T11:47:53;25.10;99.90
15257;DHT22;7731;50.720;6.912;2023-07-30T11:50:23;24.90;99.90
15257;DHT22;7731;50.720;6.912;2023-07-30T11:52:54;24.70;99.90
15257;DHT22;7731;50.720;6.912;2023-07-30T11:55:37;24.60;99.90
15257;DHT22;7731;50.720;6.912;2023-07-30T11:58:15;24.70;99.90
15257;DHT22;7731;50.720;6.912;2023-07-30T12:00:46;24.80;99.90
15257;DHT22;7731;50.720;6.912;2023-07-30T12:03:19;25.00;1.00
15257;DHT22;7731;50.720;6.912;2023-07-30T12:05:54;24.90;1.00
15257;DHT22;7731;50.720;6.912;2023-07-30T12:08:26;24.40;99.90
15257;DHT22;7731;50.720;6.912;2023-07-30T12:11:02;24.50;99.90
15257;DHT22;7731;50.720;6.912;2023-07-30T12:13:33;24.80;1.00
15257;DHT22;7731;50.720;6.912;2023-07-30T12:16:14;24.70;1.00
15257;DHT22;7731;50.720;6.912;2023-07-30T12:18:50;24.50;99.90
15257;DHT22;7731;50.720;6.912;2023-07-30T12:21:24;24.20;1.00
15257;DHT22;7731;50.720;6.912;2023-07-30T12:23:54;24.00;1.00
15257;DHT22;7731;50.720;6.912;2023-07-30T12:26:24;23.80;99.90
15257;DHT22;7731;50.720;6.912;2023-07-30T12:28:55;24.00;1.00
15257;DHT22;7731;50.720;6.912;2023-07-30T12:31:25;23.80;99.90
15257;DHT22;7731;50.720;6.912;2023-07-30T12:34:01;24.60;1.00
15257;DHT22;7731;50.720;6.912;2023-07-30T12:36:31;25.00;99.90
15257;DHT22;7731;50.720;6.912;2023-07-30T12:39:01;25.40;99.90
15257;DHT22;7731;50.720;6.912;2023-07-30T12:41:32;25.10;1.00
15257;DHT22;7731;50.720;6.912;2023-07-30T12:44:04;25.10;24.20
15257;DHT22;7731;50.720;6.912;2023-07-30T12:46:34;24.90;1.00
15257;DHT22;7731;50.720;6.912;2023-07-30T12:49:07;24.80;1.00
15257;DHT22;7731;50.720;6.912;2023-07-30T12:51:37;24.70;99.90
15257;DHT22;7731;50.720;6.912;2023-07-30T12:54:08;24.90;99.90
15257;DHT22;7731;50.720;6.912;2023-07-30T12:56:39;25.20;99.90
15257;DHT22;7731;50.720;6.912;2023-07-30T12:59:09;25.10;1.00
15257;DHT22;7731;50.720;6.912;2023-07-30T13:01:39;25.00;1.00
15257;DHT22;7731;50.720;6.912;2023-07-30T13:04:16;24.60;99.90
15257;DHT22;7731;50.720;6.912;2023-07-30T13:06:47;24.70;99.90
15257;DHT22;7731;50.720;6.912;2023-07-30T13:09:18;24.40;1.00
15257;DHT22;7731;50.720;6.912;2023-07-30T13:11:48;24.60;99.90
15257;DHT22;7731;50.720;6.912;2023-07-30T13:14:19;24.80;99.90
15257;DHT22;7731;50.720;6.912;2023-07-30T13:16:49;24.80;1.00
15257;DHT22;7731;50.720;6.912;2023-07-30T13:19:22;24.90;99.90
15257;DHT22;7731;50.720;6.912;2023-07-30T13:21:55;25.00;99.90
15257;DHT22;7731;50.720;6.912;2023-07-30T13:24:25;25.20;1.00
15257;DHT22;7731;50.720;6.912;2023-07-30T13:27:06;25.50;1.00
15257;DHT22;7731;50.720;6.912;2023-07-30T13:29:40;25.50;99.90
15257;DHT22;7731;50.720;6.912;2023-07-30T13:32:13;25.20;1.00
15257;DHT22;7731;50.720;6.912;2023-07-30T13:34:49;25.10;99.90
15257;DHT22;7731;50.720;6.912;2023-07-30T13:37:22;25.30;1.00
15257;DHT22;7731;50.720;6.912;2023-07-30T13:39:55;25.20;1.00
15257;DHT22;7731;50.720;6.912;2023-07-30T13:42:26;24.90;14.60
15257;DHT22;7731;50.720;6.912;2023-07-30T13:44:58;24.90;1.00
15257;DHT22;7731;50.720;6.912;2023-07-30T13:47:29;24.80;99.90
15257;DHT22;7731;50.720;6.912;2023-07-30T13:50:02;24.70;99.90
15257;DHT22;7731;50.720;6.912;2023-07-30T13:52:40;25.00;1.00
15257;DHT22;7731;50.720;6.912;2023-07-30T13:55:10;25.50;99.90
15257;DHT22;7731;50.720;6.912;2023-07-30T13:57:40;25.70;1.00
15257;DHT22;7731;50.720;6.912;2023-07-30T14:00:12;25.60;1.00
15257;DHT22;7731;50.720;6.912;2023-07-30T14:02:43;25.40;1.00
15257;DHT22;7731;50.720;6.912;2023-07-30T14:05:19;25.20;1.00
15257;DHT22;7731;50.720;6.912;2023-07-30T14:07:50;25.20;99.90
15257;DHT22;7731;50.720;6.912;2023-07-30T14:10:21;25.20;1.00
15257;DHT22;7731;50.720;6.912;2023-07-30T14:12:51;25.40;32.80
15257;DHT22;7731;50.720;6.912;2023-07-30T14:15:21;25.40;1.00
15257;DHT22;7731;50.720;6.912;2023-07-30T14:17:52;25.40;99.90
15257;DHT22;7731;50.720;6.912;2023-07-30T14:20:28;25.30;99.90
15257;DHT22;7731;50.720;6.912;2023-07-30T14:23:12;25.40;1.00
15257;DHT22;7731;50.720;6.912;2023-07-30T14:25:44;25.50;1.00
15257;DHT22;7731;50.720;6.912;2023-07-30T14:28:17;25.20;1.00
15257;DHT22;7731;50.720;6.912;2023-07-30T14:30:47;25.20;1.00
15257;DHT22;7731;50.720;6.912;2023-07-30T14:33:18;25.30;99.90
15257;DHT22;7731;50.720;6.912;2023-07-30T14:35:51;25.40;1.00
15257;DHT22;7731;50.720;6.912;2023-07-30T14:38:28;25.40;99.90
15257;DHT22;7731;50.720;6.912;2023-07-30T14:41:01;25.30;99.90
15257;DHT22;7731;50.720;6.912;2023-07-30T14:43:49;25.30;1.00
15257;DHT22;7731;50.720;6.912;2023-07-30T14:46:23;25.10;99.90
15257;DHT22;7731;50.720;6.912;2023-07-30T14:48:55;25.10;1.00
15257;DHT22;7731;50.720;6.912;2023-07-30T14:51:31;25.10;1.00
15257;DHT22;7731;50.720;6.912;2023-07-30T14:54:04;25.30;99.90
15257;DHT22;7731;50.720;6.912;2023-07-30T14:56:35;25.50;1.00
15257;DHT22;7731;50.720;6.912;2023-07-30T14:59:06;25.30;1.00
15257;DHT22;7731;50.720;6.912;2023-07-30T15:01:39;25.00;99.90
15257;DHT22;7731;50.720;6.912;2023-07-30T15:04:20;24.70;1.00
15257;DHT22;7731;50.720;6.912;2023-07-30T15:06:53;24.60;99.90
15257;DHT22;7731;50.720;6.912;2023-07-30T15:09:23;24.70;59.50
15257;DHT22;7731;50.720;6.912;2023-07-30T15:11:57;24.80;1.00
15257;DHT22;7731;50.720;6.912;2023-07-30T15:14:29;24.90;58.50
15257;DHT22;7731;50.720;6.912;2023-07-30T15:17:03;25.00;1.00
15257;DHT22;7731;50.720;6.912;2023-07-30T15:19:33;25.30;99.90
15257;DHT22;7731;50.720;6.912;2023-07-30T15:22:07;24.90;1.00
15257;DHT22;7731;50.720;6.912;2023-07-30T15:24:43;24.40;99.90
15257;DHT22;7731;50.720;6.912;2023-07-30T15:27:13;24.10;1.00
15257;DHT22;7731;50.720;6.912;2023-07-30T15:29:44;24.30;99.90
15257;DHT22;7731;50.720;6.912;2023-07-30T15:32:16;24.50;30.00
15257;DHT22;7731;50.720;6.912;2023-07-30T15:34:47;24.80;1.00
15257;DHT22;7731;50.720;6.912;2023-07-30T15:37:20;25.00;74.20
15257;DHT22;7731;50.720;6.912;2023-07-30T15:39:50;25.10;4.90
15257;DHT22;7731;50.720;6.912;2023-07-30T15:42:20;24.90;1.00
15257;DHT22;7731;50.720;6.912;2023-07-30T15:44:51;24.60;1.00
15257;DHT22;7731;50.720;6.912;2023-07-30T15:47:23;24.40;1.00
15257;DHT22;7731;50.720;6.912;2023-07-30T15:49:53;24.40;99.90
15257;DHT22;7731;50.720;6.912;2023-07-30T15:52:26;24.40;1.00
15257;DHT22;7731;50.720;6.912;2023-07-30T15:55:03;24.50;1.00
15257;DHT22;7731;50.720;6.912;2023-07-30T15:57:36;24.30;99.90
15257;DHT22;7731;50.720;6.912;2023-07-30T16:00:08;24.10;99.90
15257;DHT22;7731;50.720;6.912;2023-07-30T16:02:42;24.10;99.90
15257;DHT22;7731;50.720;6.912;2023-07-30T16:05:12;24.00;99.90
15257;DHT22;7731;50.720;6.912;2023-07-30T16:07:45;23.80;99.90
15257;DHT22;7731;50.720;6.912;2023-07-30T16:10:18;23.80;99.90
15257;DHT22;7731;50.720;6.912;2023-07-30T16:12:49;24.00;1.00
15257;DHT22;7731;50.720;6.912;2023-07-30T16:15:19;24.10;99.90
15257;DHT22;7731;50.720;6.912;2023-07-30T16:17:49;24.10;99.90
15257;DHT22;7731;50.720;6.912;2023-07-30T16:20:20;24.20;1.00
15257;DHT22;7731;50.720;6.912;2023-07-30T16:22:54;24.30;10.00
15257;DHT22;7731;50.720;6.912;2023-07-30T16:25:25;24.10;99.90
15257;DHT22;7731;50.720;6.912;2023-07-30T16:27:57;23.90;1.00
15257;DHT22;7731;50.720;6.912;2023-07-30T16:30:30;23.80;99.90
15257;DHT22;7731;50.720;6.912;2023-07-30T16:33:00;23.90;1.00